TJNR/NRR METAR and TAF weather

Enter ICAO airport designator
Station Type Date Time Source
TJNR METAR 2022/06/30 12:53 UTC NOAA

TJNR 301253Z AUTO 07010KT 10SM OVC022 31/24 A3007 RMK AO2 SLP182 T03060244


Station Type Date Time Source
TJNR Decoded METAR 2022/06/30 12:53 UTC NOAA

ROOSEVELT ROADS PUERTO RICO, PR, United States (TJNR) 18-15N 65-38W 10M
Jun 30, 2022 - 08:53 AM EDT / 2022.06.30 1253 UTC
Wind: from the ENE (070 degrees) at 12 MPH (10 KT):0
Visibility: 10 mile(s):0
Sky conditions: overcast
Temperature: 87.1 F (30.6 C)
Heat index: 97.3 F (36.3 C):1
Dew Point: 75.9 F (24.4 C)
Relative Humidity: 69%
Pressure (altimeter): 30.07 in. Hg (1018 hPa)
ob: TJNR 301253Z AUTO 07010KT 10SM OVC022 31/24 A3007 RMK AO2 SLP182 T03060244
cycle: 13

Station Type Date Time Source
TJNR TAF UTC NOAA

Error!

Example: see airport list